NCAR-RAP Real-Time Weather Data

Output produced by METARs form (23 June 2018  19:33 UTC)
found at http://weather.rap.ucar.edu/surface/
 
RJBB 231920Z AUTO 02007KT 2400 R06R/P2000N R06L/P2000N -RA BR SCT005 SCT009 OVC011 20/20 Q1004 RMK A2966
 
 
 
 
 
 
 
RJOH 231900Z 24004KT 9999 FEW050 SCT070 BKN100 21/17 Q1004
 
RJOI 231855Z 30006KT 9999 FEW040 20/17 A2970 RMK SLP057 T02000172
 
 
 
 
 
 
 
 
 
 
 
RJFF 231900Z AUTO 17004KT 9999 NCD 19/17 Q1006 RMK A2973
 
 
 
 
RJFR 231900Z VRB01KT 9999 FEW020 20/16 Q1005
 
RJFS 231900Z 33003KT 9999 FEW010 19/18 Q1007